Time;durP1;ratioP1;P1;durP2;ratioP2;P2;SDS_P1;SDS_P2;PMS_P1;PMS_P2;Temp;Humidity;BMP_temperature;BMP_pressure;BME280_temperature;BME280_humidity;BME280_pressure;Samples;Min_cycle;Max_cycle;Signal;HPM_P1;HPM_P2
2023/10/28 00:01:30;;;;;;;25.55;11.40;;;;;;;;;;8398152;28;20041;-88
2023/10/28 00:05:34;;;;;;;26.92;12.07;;;;;;;;;;8397650;28;20131;-86
2023/10/28 00:09:37;;;;;;;28.52;12.52;;;;;;;;;;8397821;28;20128;-87
2023/10/28 00:13:40;;;;;;;25.80;10.57;;;;;;;;;;8397726;28;20484;-86
2023/10/28 00:17:43;;;;;;;24.20;10.98;;;;;;;;;;8397448;28;20052;-87
2023/10/28 00:21:47;;;;;;;28.92;11.82;;;;;;;;;;8398074;28;20405;-87
2023/10/28 00:25:50;;;;;;;26.30;11.50;;;;;;;;;;8396783;28;20155;-87
2023/10/28 00:29:53;;;;;;;23.10;10.82;;;;;;;;;;8397011;28;20544;-87
2023/10/28 00:33:56;;;;;;;21.65;10.02;;;;;;;;;;8397071;28;20126;-88
2023/10/28 00:38:01;;;;;;;24.63;11.40;;;;;;;;;;8394946;28;20050;-86
2023/10/28 00:42:05;;;;;;;27.38;10.88;;;;;;;;;;8383845;28;20052;-86
2023/10/28 00:46:08;;;;;;;24.45;11.02;;;;;;;;;;8383008;28;20036;-88
2023/10/28 00:50:14;;;;;;;23.88;10.82;;;;;;;;;;8396834;28;20048;-87
2023/10/28 00:54:18;;;;;;;22.33;9.43;;;;;;;;;;8396447;28;20033;-88
2023/10/28 00:58:22;;;;;;;22.13;10.52;;;;;;;;;;8395917;28;20153;-87
2023/10/28 01:02:27;;;;;;;23.48;10.45;;;;;;;;;;8396108;28;20037;-89
2023/10/28 01:06:30;;;;;;;22.70;10.20;;;;;;;;;;8396132;28;20051;-86
2023/10/28 01:10:35;;;;;;;20.45;10.20;;;;;;;;;;8396153;28;20477;-89
2023/10/28 01:14:39;;;;;;;24.33;10.75;;;;;;;;;;8397481;28;20044;-96
2023/10/28 01:18:42;;;;;;;21.52;10.15;;;;;;;;;;8382065;28;20045;-89
2023/10/28 01:22:49;;;;;;;26.98;10.32;;;;;;;;;;8393767;28;20045;-88
2023/10/28 01:26:51;;;;;;;26.25;10.32;;;;;;;;;;8396014;28;20048;-95
2023/10/28 01:30:56;;;;;;;26.60;11.75;;;;;;;;;;8379679;28;20101;-93
2023/10/28 01:34:59;;;;;;;26.92;11.30;;;;;;;;;;8387070;28;20101;-91
2023/10/28 01:39:03;;;;;;;25.98;11.52;;;;;;;;;;8389059;28;20049;-92
2023/10/28 01:43:06;;;;;;;23.40;10.68;;;;;;;;;;8395263;28;20132;-88
2023/10/28 01:47:09;;;;;;;22.88;11.77;;;;;;;;;;8391907;28;20063;-93
2023/10/28 01:51:30;;;;;;;24.63;11.93;;;;;;;;;;8383015;28;20049;-95
2023/10/28 01:55:35;;;;;;;25.63;12.18;;;;;;;;;;8386517;28;20037;-87
2023/10/28 01:59:40;;;;;;;27.77;13.10;;;;;;;;;;8384708;28;20051;-95
2023/10/28 02:03:43;;;;;;;24.75;11.57;;;;;;;;;;8382079;28;20143;-85
2023/10/28 02:07:47;;;;;;;33.38;12.55;;;;;;;;;;8396878;28;20048;-93
2023/10/28 02:11:52;;;;;;;29.58;12.82;;;;;;;;;;8389296;28;20068;-95
2023/10/28 02:15:55;;;;;;;28.05;12.85;;;;;;;;;;8391491;28;20146;-94
2023/10/28 02:19:58;;;;;;;29.20;12.95;;;;;;;;;;8401135;28;20503;-89
2023/10/28 02:24:03;;;;;;;32.30;14.07;;;;;;;;;;8397663;28;20068;-89
2023/10/28 02:28:07;;;;;;;28.63;13.50;;;;;;;;;;8396448;28;20048;-93
2023/10/28 02:32:10;;;;;;;28.23;12.70;;;;;;;;;;8391004;28;20117;-87
2023/10/28 02:36:13;;;;;;;27.90;12.52;;;;;;;;;;8383528;28;20102;-94
2023/10/28 02:40:16;;;;;;;30.85;13.05;;;;;;;;;;8401393;28;20040;-89
2023/10/28 02:44:20;;;;;;;26.73;12.88;;;;;;;;;;8401322;28;20400;-90
2023/10/28 02:48:23;;;;;;;25.17;12.23;;;;;;;;;;8402310;28;20139;-93
2023/10/28 02:52:26;;;;;;;27.23;11.82;;;;;;;;;;8404330;28;20090;-96
2023/10/28 02:56:29;;;;;;;30.65;12.93;;;;;;;;;;8399881;28;20400;-91
2023/10/28 03:00:33;;;;;;;34.65;15.93;;;;;;;;;;8379517;28;20509;-86
2023/10/28 03:04:36;;;;;;;39.38;17.05;;;;;;;;;;8381411;28;20053;-89
2023/10/28 03:08:39;;;;;;;58.13;24.60;;;;;;;;;;8384948;28;20480;-90
2023/10/28 03:12:42;;;;;;;36.60;16.70;;;;;;;;;;8394182;28;20381;-92
2023/10/28 03:16:46;;;;;;;44.45;21.90;;;;;;;;;;8387049;28;20075;-85
2023/10/28 03:20:49;;;;;;;41.50;21.73;;;;;;;;;;8396901;28;20104;-95
2023/10/28 03:24:52;;;;;;;42.15;19.90;;;;;;;;;;8386522;28;20084;-86
2023/10/28 03:28:56;;;;;;;41.50;17.15;;;;;;;;;;8388236;28;20071;-88
2023/10/28 03:33:01;;;;;;;39.72;19.42;;;;;;;;;;8379063;28;20064;-88
2023/10/28 03:37:07;;;;;;;31.13;15.48;;;;;;;;;;8364017;28;20118;-89
2023/10/28 03:41:13;;;;;;;32.25;15.23;;;;;;;;;;8378468;28;20104;-87
2023/10/28 03:45:16;;;;;;;24.00;10.45;;;;;;;;;;8386624;28;20040;-94
2023/10/28 03:49:20;;;;;;;26.70;12.27;;;;;;;;;;8401922;28;20047;-90
2023/10/28 03:53:25;;;;;;;20.23;9.95;;;;;;;;;;8393166;28;20049;-88
2023/10/28 03:57:29;;;;;;;20.23;9.10;;;;;;;;;;8401415;28;20072;-88
2023/10/28 04:01:32;;;;;;;16.95;8.55;;;;;;;;;;8394761;28;20048;-88
2023/10/28 04:05:38;;;;;;;31.67;22.40;;;;;;;;;;8387375;28;20408;-86
2023/10/28 04:09:41;;;;;;;19.75;9.60;;;;;;;;;;8398185;28;20044;-86
2023/10/28 04:13:44;;;;;;;15.88;7.38;;;;;;;;;;8397406;28;20050;-87
2023/10/28 04:17:47;;;;;;;16.13;7.95;;;;;;;;;;8397690;28;20549;-87
2023/10/28 04:21:54;;;;;;;14.52;7.32;;;;;;;;;;8397904;28;20036;-88
2023/10/28 04:25:57;;;;;;;16.27;8.35;;;;;;;;;;8398351;28;20047;-87
2023/10/28 04:30:00;;;;;;;14.98;7.50;;;;;;;;;;8396556;28;20040;-88
2023/10/28 04:34:03;;;;;;;15.32;7.47;;;;;;;;;;8371334;28;20457;-86
2023/10/28 04:38:07;;;;;;;18.30;8.30;;;;;;;;;;8392792;28;20480;-86
2023/10/28 04:42:10;;;;;;;15.02;7.63;;;;;;;;;;8395611;28;20048;-88
2023/10/28 04:46:13;;;;;;;13.18;7.40;;;;;;;;;;8397594;28;20124;-86
2023/10/28 04:50:16;;;;;;;13.98;7.95;;;;;;;;;;8389408;28;20052;-87
2023/10/28 04:54:22;;;;;;;12.68;8.15;;;;;;;;;;8397573;28;20037;-96
2023/10/28 04:58:27;;;;;;;16.75;9.45;;;;;;;;;;8397464;28;20063;-88
2023/10/28 05:02:31;;;;;;;13.98;7.93;;;;;;;;;;8396845;28;20045;-90
2023/10/28 05:06:34;;;;;;;12.15;6.97;;;;;;;;;;8393279;28;20080;-96
2023/10/28 05:10:38;;;;;;;14.27;8.00;;;;;;;;;;8385365;28;20037;-89
2023/10/28 05:14:41;;;;;;;14.10;8.25;;;;;;;;;;8394635;28;20063;-95
2023/10/28 05:18:45;;;;;;;16.45;8.98;;;;;;;;;;8412406;28;20085;-93
2023/10/28 05:22:48;;;;;;;17.05;9.95;;;;;;;;;;8411130;28;20041;-95
2023/10/28 05:26:53;;;;;;;15.15;9.40;;;;;;;;;;8404144;28;20047;-96
2023/10/28 05:30:56;;;;;;;19.80;11.82;;;;;;;;;;8397598;28;20044;-87
2023/10/28 05:34:59;;;;;;;21.25;11.35;;;;;;;;;;8405333;28;20044;-91
2023/10/28 05:39:03;;;;;;;15.98;9.23;;;;;;;;;;8407346;28;20507;-92
2023/10/28 05:43:08;;;;;;;19.67;10.00;;;;;;;;;;8407664;28;20044;-87
2023/10/28 05:47:11;;;;;;;13.38;7.47;;;;;;;;;;8404951;28;20051;-92
2023/10/28 05:51:14;;;;;;;15.63;8.98;;;;;;;;;;8404965;28;20040;-86
2023/10/28 05:55:18;;;;;;;15.65;8.65;;;;;;;;;;8405266;28;20045;-89
2023/10/28 05:59:22;;;;;;;18.15;9.95;;;;;;;;;;8386561;28;20124;-86
2023/10/28 06:03:26;;;;;;;16.35;9.45;;;;;;;;;;8405156;28;20097;-94
2023/10/28 06:07:29;;;;;;;17.70;10.13;;;;;;;;;;8390441;28;20048;-88
2023/10/28 06:11:32;;;;;;;15.98;9.25;;;;;;;;;;8398634;28;20064;-87
2023/10/28 06:15:37;;;;;;;17.60;9.48;;;;;;;;;;8406457;28;20052;-93
2023/10/28 06:19:41;;;;;;;15.15;9.05;;;;;;;;;;8403027;28;20044;-94
2023/10/28 06:23:46;;;;;;;14.85;7.75;;;;;;;;;;8389559;28;20075;-88
2023/10/28 06:27:51;;;;;;;12.88;6.68;;;;;;;;;;8391952;28;20083;-95
2023/10/28 06:31:59;;;;;;;12.82;7.60;;;;;;;;;;8382715;28;20112;-86
2023/10/28 06:36:10;;;;;;;14.20;8.50;;;;;;;;;;8376555;28;20049;-88
2023/10/28 06:40:24;;;;;;;14.73;8.65;;;;;;;;;;8398979;28;20400;-87
2023/10/28 06:44:27;;;;;;;16.85;8.52;;;;;;;;;;8397875;28;20151;-88
2023/10/28 06:48:47;;;;;;;13.45;7.63;;;;;;;;;;8396488;28;20094;-88
2023/10/28 06:52:50;;;;;;;14.52;8.20;;;;;;;;;;8393362;28;20045;-87
2023/10/28 06:56:53;;;;;;;16.35;10.45;;;;;;;;;;8406305;28;20063;-95
2023/10/28 07:00:57;;;;;;;15.20;10.95;;;;;;;;;;8385723;28;20071;-88
2023/10/28 07:05:03;;;;;;;14.68;8.25;;;;;;;;;;8401997;28;20072;-91
2023/10/28 07:09:06;;;;;;;23.05;13.27;;;;;;;;;;8396884;28;20045;-88
2023/10/28 07:13:09;;;;;;;21.27;11.07;;;;;;;;;;8362989;28;20044;-90
2023/10/28 07:17:12;;;;;;;15.95;9.98;;;;;;;;;;8387452;28;20055;-93
2023/10/28 07:21:16;;;;;;;15.35;9.70;;;;;;;;;;8382839;28;20112;-88
2023/10/28 07:25:29;;;;;;;12.82;7.93;;;;;;;;;;8396338;28;20048;-88
2023/10/28 07:29:32;;;;;;;12.88;7.75;;;;;;;;;;8386979;28;20048;-87
2023/10/28 07:33:36;;;;;;;11.20;7.25;;;;;;;;;;8406297;28;20048;-90
2023/10/28 07:37:41;;;;;;;10.85;6.95;;;;;;;;;;8404171;28;20041;-93
2023/10/28 07:41:44;;;;;;;13.00;7.35;;;;;;;;;;8403626;28;20045;-87
2023/10/28 07:45:47;;;;;;;10.68;6.53;;;;;;;;;;8402316;28;20131;-90
2023/10/28 07:49:51;;;;;;;9.82;6.03;;;;;;;;;;8403270;28;20103;-87
2023/10/28 07:53:55;;;;;;;9.48;5.72;;;;;;;;;;8402738;28;20123;-91
2023/10/28 07:57:59;;;;;;;8.50;5.68;;;;;;;;;;8400176;28;20058;-89
2023/10/28 08:02:02;;;;;;;8.23;5.03;;;;;;;;;;8385028;28;20073;-92
2023/10/28 08:06:09;;;;;;;9.43;5.68;;;;;;;;;;8400225;28;20044;-88
2023/10/28 08:10:14;;;;;;;7.88;5.30;;;;;;;;;;8399174;28;20411;-87
2023/10/28 08:14:17;;;;;;;8.88;5.47;;;;;;;;;;8399801;28;20049;-91
2023/10/28 08:18:20;;;;;;;11.02;6.88;;;;;;;;;;8398136;28;20052;-88
2023/10/28 08:22:24;;;;;;;8.00;5.03;;;;;;;;;;8389041;28;20044;-87
2023/10/28 08:26:28;;;;;;;8.65;5.30;;;;;;;;;;8381431;28;20385;-92
2023/10/28 08:30:34;;;;;;;9.43;4.53;;;;;;;;;;8398899;28;20121;-90
2023/10/28 08:34:36;;;;;;;8.98;5.60;;;;;;;;;;8382055;28;20060;-93
2023/10/28 08:38:40;;;;;;;8.57;5.35;;;;;;;;;;8400063;28;20068;-93
2023/10/28 08:42:46;;;;;;;8.85;5.75;;;;;;;;;;8393424;28;20128;-92
2023/10/28 08:46:50;;;;;;;10.07;6.72;;;;;;;;;;8398640;28;20044;-92
2023/10/28 08:51:05;;;;;;;13.60;7.82;;;;;;;;;;8402515;28;20412;-93
2023/10/28 08:55:10;;;;;;;11.55;6.90;;;;;;;;;;8406227;28;20498;-87
2023/10/28 08:59:17;;;;;;;23.67;10.95;;;;;;;;;;8420069;28;20116;-88
2023/10/28 09:03:34;;;;;;;10.13;5.93;;;;;;;;;;8409600;28;20143;-90
2023/10/28 09:07:53;;;;;;;15.68;9.65;;;;;;;;;;8424862;28;20056;-89
2023/10/28 09:12:07;;;;;;;14.15;8.73;;;;;;;;;;8421019;28;20425;-91
2023/10/28 09:16:15;;;;;;;13.18;9.00;;;;;;;;;;8416813;28;20114;-96
2023/10/28 09:20:19;;;;;;;8.38;5.53;;;;;;;;;;8400127;28;20104;-91
2023/10/28 09:24:32;;;;;;;14.43;8.43;;;;;;;;;;8419149;28;20083;-95
2023/10/28 09:28:45;;;;;;;10.88;7.38;;;;;;;;;;8420236;28;20338;-91
2023/10/28 09:32:50;;;;;;;12.48;8.80;;;;;;;;;;8398716;28;20080;-88
2023/10/28 09:36:55;;;;;;;9.23;6.50;;;;;;;;;;8389780;28;20055;-93
2023/10/28 09:41:01;;;;;;;11.13;6.88;;;;;;;;;;8399845;28;20049;-89
2023/10/28 09:45:08;;;;;;;11.02;7.75;;;;;;;;;;8399714;28;20534;-88
2023/10/28 09:49:16;;;;;;;11.38;7.40;;;;;;;;;;8397634;28;20072;-87
2023/10/28 09:53:30;;;;;;;9.57;6.80;;;;;;;;;;8397857;28;20044;-88
2023/10/28 09:57:34;;;;;;;12.27;6.15;;;;;;;;;;8396765;28;20488;-87
2023/10/28 10:01:48;;;;;;;13.40;8.38;;;;;;;;;;8400983;28;20123;-87
2023/10/28 10:05:53;;;;;;;14.85;7.38;;;;;;;;;;8401465;28;20112;-88
2023/10/28 10:10:10;;;;;;;12.52;8.13;;;;;;;;;;8402550;28;20534;-95
2023/10/28 10:14:13;;;;;;;11.73;6.63;;;;;;;;;;8402740;28;20119;-88
2023/10/28 10:18:30;;;;;;;12.48;6.97;;;;;;;;;;8402644;28;20055;-95
2023/10/28 10:22:35;;;;;;;10.93;5.47;;;;;;;;;;8402760;28;20127;-88
2023/10/28 10:26:38;;;;;;;9.00;5.85;;;;;;;;;;8402589;28;20065;-88
2023/10/28 10:30:42;;;;;;;9.35;5.70;;;;;;;;;;8402065;28;20074;-87
2023/10/28 10:34:46;;;;;;;10.25;5.90;;;;;;;;;;8403129;28;20072;-87
2023/10/28 10:38:50;;;;;;;9.77;5.40;;;;;;;;;;8402836;28;20055;-89
2023/10/28 10:42:56;;;;;;;10.65;4.88;;;;;;;;;;8401782;28;20048;-89
2023/10/28 10:46:59;;;;;;;7.63;5.00;;;;;;;;;;8401998;28;20076;-91
2023/10/28 10:51:03;;;;;;;7.63;4.40;;;;;;;;;;8385972;28;20090;-91
2023/10/28 10:55:09;;;;;;;9.80;5.20;;;;;;;;;;8402562;28;20055;-87
2023/10/28 10:59:11;;;;;;;9.80;5.40;;;;;;;;;;8403298;28;20084;-88
2023/10/28 11:03:21;;;;;;;12.77;6.13;;;;;;;;;;8402248;28;20119;-88
2023/10/28 11:07:25;;;;;;;10.23;5.43;;;;;;;;;;8383932;28;20131;-87
2023/10/28 11:11:29;;;;;;;10.95;4.90;;;;;;;;;;8382990;28;20048;-88
2023/10/28 11:15:33;;;;;;;7.13;3.90;;;;;;;;;;8400187;28;20472;-88
2023/10/28 11:19:37;;;;;;;11.20;4.80;;;;;;;;;;8401332;28;20056;-88
2023/10/28 11:23:40;;;;;;;7.00;3.88;;;;;;;;;;8403442;28;20128;-89
2023/10/28 11:27:52;;;;;;;7.78;3.80;;;;;;;;;;8402155;28;20585;-89
2023/10/28 11:31:56;;;;;;;7.18;3.35;;;;;;;;;;8402217;28;20036;-88
2023/10/28 11:36:01;;;;;;;10.52;3.15;;;;;;;;;;8401635;28;20411;-88
2023/10/28 11:40:06;;;;;;;7.20;3.10;;;;;;;;;;8400224;28;20063;-90
2023/10/28 11:44:12;;;;;;;8.63;3.70;;;;;;;;;;8398400;28;20053;-89
2023/10/28 11:48:15;;;;;;;6.82;3.63;;;;;;;;;;8391912;28;20063;-88
2023/10/28 11:52:18;;;;;;;7.07;2.90;;;;;;;;;;8397642;28;20048;-89
2023/10/28 11:56:23;;;;;;;9.90;4.60;;;;;;;;;;8399498;28;20447;-88
2023/10/28 12:00:28;;;;;;;38.60;19.33;;;;;;;;;;8355064;28;20049;-94
2023/10/28 12:04:32;;;;;;;104.28;51.33;;;;;;;;;;8349667;28;20057;-91
2023/10/28 12:08:35;;;;;;;54.38;28.95;;;;;;;;;;8356974;28;20109;-89
2023/10/28 12:12:42;;;;;;;11.48;5.60;;;;;;;;;;8386701;28;20053;-90
2023/10/28 12:17:05;;;;;;;11.63;6.40;;;;;;;;;;8378381;28;20512;-93
2023/10/28 12:21:17;;;;;;;15.07;9.85;;;;;;;;;;8372870;28;20045;-90
2023/10/28 12:25:21;;;;;;;14.23;7.57;;;;;;;;;;8370431;28;20476;-95
2023/10/28 12:29:26;;;;;;;19.90;13.10;;;;;;;;;;8375144;28;20136;-93
2023/10/28 12:33:33;;;;;;;7.70;3.97;;;;;;;;;;8375606;28;20066;-95
2023/10/28 12:37:36;;;;;;;15.30;5.65;;;;;;;;;;8354689;28;20046;-89
2023/10/28 12:41:39;;;;;;;9.88;4.10;;;;;;;;;;8362237;28;20106;-89
2023/10/28 12:45:42;;;;;;;17.58;10.35;;;;;;;;;;8365818;28;20037;-88
2023/10/28 12:49:47;;;;;;;18.45;11.55;;;;;;;;;;8367405;28;20093;-96
2023/10/28 12:53:50;;;;;;;14.00;7.68;;;;;;;;;;8366035;28;20045;-95
2023/10/28 12:57:53;;;;;;;15.45;8.63;;;;;;;;;;8354220;28;20081;-93
2023/10/28 13:01:59;;;;;;;17.15;11.50;;;;;;;;;;8363609;28;20547;-87
2023/10/28 13:06:04;;;;;;;15.05;10.07;;;;;;;;;;8367967;28;20053;-94
2023/10/28 13:10:10;;;;;;;17.85;11.82;;;;;;;;;;8362113;28;20057;-92
2023/10/28 13:14:16;;;;;;;10.80;6.47;;;;;;;;;;8363495;28;20061;-89
2023/10/28 13:18:18;;;;;;;23.98;11.20;;;;;;;;;;8345502;28;20116;-88
2023/10/28 13:22:22;;;;;;;13.95;8.55;;;;;;;;;;8333433;28;20079;-94
2023/10/28 13:26:25;;;;;;;8.23;4.50;;;;;;;;;;8365954;28;20052;-96
2023/10/28 13:30:38;;;;;;;8.63;4.65;;;;;;;;;;8360819;28;20045;-95
2023/10/28 13:34:45;;;;;;;9.07;5.30;;;;;;;;;;8355224;28;20049;-92
2023/10/28 13:38:49;;;;;;;11.00;6.30;;;;;;;;;;8370922;28;20037;-94
2023/10/28 13:42:52;;;;;;;8.68;4.72;;;;;;;;;;8353840;28;20133;-94
2023/10/28 13:46:55;;;;;;;9.98;5.95;;;;;;;;;;8370363;28;20041;-94
2023/10/28 13:50:59;;;;;;;10.25;5.05;;;;;;;;;;8371143;28;20122;-93
2023/10/28 13:55:10;;;;;;;8.23;4.30;;;;;;;;;;8349229;28;20098;-92
2023/10/28 13:59:13;;;;;;;11.00;4.20;;;;;;;;;;8393722;28;20082;-90
2023/10/28 14:03:23;;;;;;;9.90;5.55;;;;;;;;;;8403609;28;20128;-93
2023/10/28 14:07:43;;;;;;;12.38;7.60;;;;;;;;;;8401508;28;20499;-91
2023/10/28 14:11:48;;;;;;;13.10;6.70;;;;;;;;;;8403493;28;20044;-95
2023/10/28 14:15:52;;;;;;;12.27;8.68;;;;;;;;;;8394240;28;20507;-94
2023/10/28 14:19:56;;;;;;;10.13;6.35;;;;;;;;;;8402183;28;20101;-88
2023/10/28 14:24:00;;;;;;;11.73;6.35;;;;;;;;;;8410500;28;20485;-90
2023/10/28 14:28:05;;;;;;;15.98;7.75;;;;;;;;;;8386690;28;20435;-90
2023/10/28 14:32:12;;;;;;;15.43;8.05;;;;;;;;;;8400947;28;20178;-90
2023/10/28 14:36:16;;;;;;;13.68;6.63;;;;;;;;;;8400802;28;20038;-90
2023/10/28 14:40:19;;;;;;;12.18;7.38;;;;;;;;;;8401051;28;20502;-90
2023/10/28 14:44:24;;;;;;;21.67;12.75;;;;;;;;;;8400650;28;20036;-90
2023/10/28 14:48:28;;;;;;;22.10;14.85;;;;;;;;;;8399555;28;20081;-91
2023/10/28 14:52:34;;;;;;;35.03;18.13;;;;;;;;;;8393945;28;20041;-91
2023/10/28 14:56:37;;;;;;;49.83;26.40;;;;;;;;;;8393805;28;20457;-90
2023/10/28 15:00:45;;;;;;;57.03;31.65;;;;;;;;;;8356754;28;20106;-92
2023/10/28 15:04:49;;;;;;;36.33;17.13;;;;;;;;;;8354181;28;20048;-88
2023/10/28 15:08:52;;;;;;;42.30;19.35;;;;;;;;;;8367099;28;20127;-91
2023/10/28 15:12:55;;;;;;;23.00;11.98;;;;;;;;;;8366054;28;20127;-92
2023/10/28 15:17:00;;;;;;;18.45;9.77;;;;;;;;;;8366536;28;20045;-94
2023/10/28 15:21:08;;;;;;;27.30;14.13;;;;;;;;;;8364439;28;20411;-92
2023/10/28 15:25:11;;;;;;;29.70;15.82;;;;;;;;;;8361064;28;20048;-92
2023/10/28 15:29:15;;;;;;;36.10;17.98;;;;;;;;;;8351204;28;20504;-95
2023/10/28 15:33:19;;;;;;;52.05;21.98;;;;;;;;;;8368358;28;20048;-87
2023/10/28 15:37:22;;;;;;;64.32;29.40;;;;;;;;;;8367248;28;20073;-92
2023/10/28 15:41:26;;;;;;;51.90;22.13;;;;;;;;;;8366942;28;20053;-96
2023/10/28 15:45:29;;;;;;;58.42;30.73;;;;;;;;;;8349715;28;20120;-90
2023/10/28 15:49:33;;;;;;;65.13;35.67;;;;;;;;;;8367264;28;20489;-88
2023/10/28 15:53:38;;;;;;;40.35;23.40;;;;;;;;;;8356976;28;20103;-92
2023/10/28 15:57:42;;;;;;;21.65;12.65;;;;;;;;;;8345092;28;20528;-93
2023/10/28 16:01:45;;;;;;;25.48;16.35;;;;;;;;;;8360369;28;20063;-95
2023/10/28 16:05:50;;;;;;;17.70;11.93;;;;;;;;;;8375003;28;20049;-89
2023/10/28 16:09:53;;;;;;;15.18;9.68;;;;;;;;;;8398165;28;20067;-94
2023/10/28 16:13:56;;;;;;;15.15;11.30;;;;;;;;;;8398090;28;20040;-93
2023/10/28 16:18:03;;;;;;;12.77;7.05;;;;;;;;;;8392246;28;20586;-92
2023/10/28 16:22:08;;;;;;;16.73;10.70;;;;;;;;;;8391943;28;20515;-87
2023/10/28 16:26:11;;;;;;;15.70;7.70;;;;;;;;;;8382335;28;20063;-93
2023/10/28 16:30:15;;;;;;;10.55;6.18;;;;;;;;;;8393253;28;20048;-93
2023/10/28 16:34:22;;;;;;;7.95;5.60;;;;;;;;;;8396638;28;20423;-88
2023/10/28 16:38:27;;;;;;;10.55;5.00;;;;;;;;;;8388038;28;20083;-88
2023/10/28 16:42:31;;;;;;;11.63;5.65;;;;;;;;;;8374276;28;20495;-90
2023/10/28 16:46:34;;;;;;;23.23;14.18;;;;;;;;;;8393586;28;20518;-89
2023/10/28 16:50:38;;;;;;;13.82;10.15;;;;;;;;;;8395243;28;20058;-92
2023/10/28 16:54:43;;;;;;;14.88;7.30;;;;;;;;;;8373042;28;20511;-90
2023/10/28 16:58:47;;;;;;;9.52;5.53;;;;;;;;;;8379071;28;20135;-90
2023/10/28 17:02:51;;;;;;;11.63;6.03;;;;;;;;;;8352707;28;20489;-88
2023/10/28 17:06:55;;;;;;;13.40;5.85;;;;;;;;;;8353370;28;20110;-94
2023/10/28 17:11:02;;;;;;;10.43;6.80;;;;;;;;;;8364532;28;20102;-88
2023/10/28 17:15:07;;;;;;;11.45;6.40;;;;;;;;;;8368366;28;20370;-92
2023/10/28 17:19:12;;;;;;;12.15;8.05;;;;;;;;;;8345832;28;20053;-91
2023/10/28 17:23:17;;;;;;;17.38;8.68;;;;;;;;;;8370482;28;20049;-94
2023/10/28 17:27:25;;;;;;;18.00;10.35;;;;;;;;;;8358649;28;20060;-94
2023/10/28 17:31:30;;;;;;;13.30;7.45;;;;;;;;;;8367696;28;20048;-89
2023/10/28 17:35:33;;;;;;;22.58;11.65;;;;;;;;;;8368678;28;20111;-93
2023/10/28 17:39:37;;;;;;;18.92;10.07;;;;;;;;;;8371089;28;20067;-90
2023/10/28 17:43:49;;;;;;;22.77;11.90;;;;;;;;;;8369001;28;20052;-90
2023/10/28 17:47:54;;;;;;;21.23;10.88;;;;;;;;;;8349293;28;20052;-90
2023/10/28 17:51:58;;;;;;;19.75;8.20;;;;;;;;;;8360230;28;20486;-94
2023/10/28 17:56:02;;;;;;;14.80;7.93;;;;;;;;;;8363609;28;20056;-89
2023/10/28 18:00:10;;;;;;;14.68;8.25;;;;;;;;;;8397249;28;20084;-93
2023/10/28 18:04:14;;;;;;;15.65;7.78;;;;;;;;;;8402772;28;20051;-90
2023/10/28 18:08:17;;;;;;;20.65;13.15;;;;;;;;;;8375493;28;20733;-93
2023/10/28 18:12:21;;;;;;;20.08;11.93;;;;;;;;;;8398049;28;20127;-93
2023/10/28 18:16:26;;;;;;;19.13;10.63;;;;;;;;;;8402137;28;20047;-95
2023/10/28 18:20:34;;;;;;;21.33;11.23;;;;;;;;;;8384976;28;20046;-94
2023/10/28 18:24:38;;;;;;;28.60;14.60;;;;;;;;;;8392503;28;20090;-91
2023/10/28 18:28:43;;;;;;;19.90;10.68;;;;;;;;;;8386632;28;20492;-91
2023/10/28 18:32:49;;;;;;;16.50;9.48;;;;;;;;;;8389205;28;20049;-92
2023/10/28 18:36:54;;;;;;;15.07;8.55;;;;;;;;;;8349110;28;20556;-92
2023/10/28 18:41:15;;;;;;;16.38;9.95;;;;;;;;;;8380679;28;20052;-94
2023/10/28 18:45:20;;;;;;;16.08;10.65;;;;;;;;;;8400612;28;20044;-94
2023/10/28 18:49:26;;;;;;;75.72;38.42;;;;;;;;;;8388487;28;20068;-90
2023/10/28 18:53:30;;;;;;;17.77;9.95;;;;;;;;;;8384172;28;20040;-88
2023/10/28 18:57:35;;;;;;;18.27;9.65;;;;;;;;;;8386175;28;20132;-93
2023/10/28 19:01:40;;;;;;;23.98;10.90;;;;;;;;;;8364430;28;20065;-88
2023/10/28 19:05:46;;;;;;;18.17;9.30;;;;;;;;;;8347614;28;20042;-92
2023/10/28 19:09:53;;;;;;;22.27;10.05;;;;;;;;;;8346726;28;20055;-94
2023/10/28 19:13:59;;;;;;;14.93;8.40;;;;;;;;;;8369558;28;20061;-96
2023/10/28 19:18:04;;;;;;;13.18;9.02;;;;;;;;;;8341601;28;20443;-93
2023/10/28 19:22:10;;;;;;;16.48;9.10;;;;;;;;;;8369080;28;20105;-87
2023/10/28 19:26:13;;;;;;;16.08;8.68;;;;;;;;;;8375134;28;20048;-90
2023/10/28 19:30:17;;;;;;;13.98;8.93;;;;;;;;;;8366472;28;20052;-92
2023/10/28 19:34:21;;;;;;;15.23;8.25;;;;;;;;;;8347793;28;20052;-94
2023/10/28 19:38:30;;;;;;;14.02;9.07;;;;;;;;;;8366549;28;20120;-95
2023/10/28 19:42:34;;;;;;;15.35;9.52;;;;;;;;;;8366546;28;20091;-91
2023/10/28 19:46:37;;;;;;;18.10;9.98;;;;;;;;;;8366332;28;20458;-88
2023/10/28 19:50:42;;;;;;;14.13;9.18;;;;;;;;;;8365708;28;20485;-90
2023/10/28 19:54:47;;;;;;;15.15;9.32;;;;;;;;;;8365986;28;20091;-88
2023/10/28 19:58:51;;;;;;;18.13;10.40;;;;;;;;;;8383324;28;20270;-87
2023/10/28 20:02:56;;;;;;;17.20;10.68;;;;;;;;;;8381514;28;20105;-88
2023/10/28 20:07:01;;;;;;;17.95;9.45;;;;;;;;;;8399652;28;20123;-87
2023/10/28 20:11:07;;;;;;;18.10;11.63;;;;;;;;;;8398060;28;20052;-89
2023/10/28 20:15:11;;;;;;;18.23;10.70;;;;;;;;;;8397993;28;20048;-89
2023/10/28 20:19:16;;;;;;;21.42;11.50;;;;;;;;;;8397969;28;20174;-91
2023/10/28 20:23:20;;;;;;;22.33;10.85;;;;;;;;;;8380963;28;20485;-93
2023/10/28 20:27:24;;;;;;;16.17;9.13;;;;;;;;;;8380071;28;20079;-95
2023/10/28 20:31:28;;;;;;;17.35;9.93;;;;;;;;;;8394601;28;20099;-94
2023/10/28 20:35:32;;;;;;;19.60;9.90;;;;;;;;;;8388140;28;20076;-92
2023/10/28 20:39:36;;;;;;;16.85;9.00;;;;;;;;;;8398354;28;20089;-94
2023/10/28 20:43:41;;;;;;;17.23;9.60;;;;;;;;;;8397455;28;20075;-89
2023/10/28 20:47:45;;;;;;;21.85;11.10;;;;;;;;;;8380688;28;20427;-89
2023/10/28 20:51:49;;;;;;;23.73;10.82;;;;;;;;;;8388987;28;20048;-94
2023/10/28 20:55:54;;;;;;;16.02;9.20;;;;;;;;;;8397976;28;20036;-94
2023/10/28 20:59:59;;;;;;;16.15;9.27;;;;;;;;;;8373279;28;20057;-87
2023/10/28 21:04:02;;;;;;;14.13;9.07;;;;;;;;;;8347367;28;20079;-87
2023/10/28 21:08:06;;;;;;;16.23;9.25;;;;;;;;;;8364828;28;20045;-95
2023/10/28 21:12:09;;;;;;;16.58;8.77;;;;;;;;;;8333836;28;20041;-87
2023/10/28 21:16:13;;;;;;;17.17;10.00;;;;;;;;;;8364194;28;20147;-87
2023/10/28 21:20:17;;;;;;;15.63;10.07;;;;;;;;;;8364071;28;20055;-88
2023/10/28 21:24:20;;;;;;;16.48;9.88;;;;;;;;;;8363762;28;20103;-87
2023/10/28 21:28:23;;;;;;;17.27;8.95;;;;;;;;;;8363420;28;20127;-89
2023/10/28 21:32:31;;;;;;;18.80;9.05;;;;;;;;;;8363883;28;20077;-95
2023/10/28 21:36:34;;;;;;;16.67;8.60;;;;;;;;;;8362786;28;20049;-87
2023/10/28 21:40:37;;;;;;;14.68;8.73;;;;;;;;;;8363588;28;20045;-90
2023/10/28 21:44:40;;;;;;;17.80;9.00;;;;;;;;;;8363472;28;20053;-89
2023/10/28 21:48:47;;;;;;;17.10;8.98;;;;;;;;;;8345845;28;20140;-94
2023/10/28 21:52:50;;;;;;;20.13;9.30;;;;;;;;;;8362515;28;20064;-87
2023/10/28 21:56:52;;;;;;;14.43;8.60;;;;;;;;;;8350181;28;20056;-90
2023/10/28 22:00:56;;;;;;;16.92;8.23;;;;;;;;;;8402231;28;20041;-94
2023/10/28 22:05:00;;;;;;;14.52;8.35;;;;;;;;;;8402502;28;20094;-94
2023/10/28 22:09:03;;;;;;;14.25;8.40;;;;;;;;;;8402728;28;20052;-91
2023/10/28 22:13:08;;;;;;;13.32;8.07;;;;;;;;;;8402413;28;20068;-95
2023/10/28 22:17:11;;;;;;;13.23;7.72;;;;;;;;;;8384898;28;20131;-90
2023/10/28 22:21:18;;;;;;;13.05;8.07;;;;;;;;;;8402256;28;20054;-88
2023/10/28 22:25:21;;;;;;;11.95;7.88;;;;;;;;;;8401690;28;20123;-92
2023/10/28 22:29:23;;;;;;;16.98;8.35;;;;;;;;;;8401611;28;20041;-92
2023/10/28 22:33:41;;;;;;;15.00;8.02;;;;;;;;;;8401478;28;20469;-87
2023/10/28 22:37:46;;;;;;;17.17;8.27;;;;;;;;;;8401603;28;20135;-94
2023/10/28 22:41:49;;;;;;;11.52;7.30;;;;;;;;;;8401226;28;20048;-95
2023/10/28 22:45:53;;;;;;;14.73;7.47;;;;;;;;;;8400813;28;20051;-90
2023/10/28 22:49:57;;;;;;;15.38;6.78;;;;;;;;;;8400743;28;20044;-86
2023/10/28 22:54:01;;;;;;;15.93;8.30;;;;;;;;;;8401157;28;20055;-92
2023/10/28 22:58:07;;;;;;;15.73;8.05;;;;;;;;;;8400986;28;20175;-87
2023/10/28 23:02:10;;;;;;;15.80;7.97;;;;;;;;;;8384007;28;20119;-88
2023/10/28 23:06:12;;;;;;;15.25;8.55;;;;;;;;;;8400766;28;20045;-89
2023/10/28 23:10:17;;;;;;;16.27;8.15;;;;;;;;;;8387479;28;20048;-89
2023/10/28 23:14:20;;;;;;;14.20;7.55;;;;;;;;;;8399961;28;20051;-88
2023/10/28 23:18:23;;;;;;;15.20;9.20;;;;;;;;;;8382974;28;20097;-90
2023/10/28 23:22:26;;;;;;;13.90;8.13;;;;;;;;;;8382196;28;20143;-89
2023/10/28 23:26:30;;;;;;;13.55;7.53;;;;;;;;;;8399807;28;20044;-94
2023/10/28 23:30:34;;;;;;;16.00;8.05;;;;;;;;;;8408100;28;20055;-95
2023/10/28 23:34:37;;;;;;;13.48;7.78;;;;;;;;;;8380369;28;20128;-87
2023/10/28 23:38:39;;;;;;;16.58;7.68;;;;;;;;;;8381537;28;20052;-89
2023/10/28 23:42:45;;;;;;;16.23;7.07;;;;;;;;;;8394703;28;20127;-94
2023/10/28 23:46:48;;;;;;;14.85;7.30;;;;;;;;;;8387316;28;20080;-94
2023/10/28 23:50:53;;;;;;;13.45;8.35;;;;;;;;;;8385599;28;20151;-94
2023/10/28 23:54:56;;;;;;;18.92;8.60;;;;;;;;;;8391397;28;20044;-89
2023/10/28 23:59:01;;;;;;;25.70;11.07;;;;;;;;;;8386810;28;20066;-94
